»·PEaware :: TWY250 KMFR-KGEG

TWY250 :: KMFR-KGEG

FLIGHT INFORMATION

Flight Status: Arrived
Operator: Unknown
More flights by this operator :: More flights under this callsign
Pilot: Anonymous 13363 (13363)
Aircraft: PIAGGIO P-180 AVANTI
(P180)
More flights by this aircraft type
Origin: KMFR Rogue Valley Intl-Medford
United States
Destination: KGEG Spokane Intl
United States
More flights between these airports :: More routes between these airports
Route: +JAKSN1 OED IMB MWH ZOOMR1
File this flight plan on PilotEdge
Remarks: FIFE TRREEEEEE
Altitude:
(Current/Filed)
41,000ft
Speed:
(Current/Filed)
370kts
Departed: 19-Jan-18 08:10 PM
Arrived: 19-Jan-18 09:52 PM
Distance/Time
Traveled:
388nm/1:42
Distance/Time
To Go:
Arrived

Flight Plot

Page will automatically refresh every two minutes.

Flight plan parsing failed; only flown route is shown


Map Options




Map Legend


Flown Route
Filed Route
Departure Airport
Arrival Airport
Navaid (VOR, NDB)
Fix

Horizontal Profiles

Position Reports

Time Latitude Longitude Heading Altitude Ground
Speed
19-Jan-18 19:59 42.372313 -122.877585 204 1320ft 0kts
19-Jan-18 20:00 42.372313 -122.877585 204 1320ft 0kts
19-Jan-18 20:01 42.372313 -122.877585 204 1320ft 0kts
19-Jan-18 20:02 42.372313 -122.877585 204 1320ft 0kts
19-Jan-18 20:03 42.372313 -122.877585 204 1320ft 0kts
19-Jan-18 20:04 42.372313 -122.877585 204 1320ft 0kts
19-Jan-18 20:05 42.372313 -122.877585 204 1320ft 0kts
19-Jan-18 20:06 42.372313 -122.877585 204 1320ft 0kts
19-Jan-18 20:07 42.372313 -122.877586 204 1320ft 0kts
19-Jan-18 20:08 42.372313 -122.877586 204 1320ft 0kts
19-Jan-18 20:09 42.372313 -122.877586 204 1320ft 0kts
19-Jan-18 20:10 42.372177 -122.877539 129 1320ft 4kts
19-Jan-18 20:11 42.370372 -122.874209 151 1320ft 13kts
19-Jan-18 20:12 42.370523 -122.873117 75 1320ft 14kts
19-Jan-18 20:13 42.367786 -122.871030 166 1319ft 9kts
19-Jan-18 20:14 42.365603 -122.869930 159 1320ft 10kts
19-Jan-18 20:15 42.364378 -122.867866 341 1320ft 11kts
19-Jan-18 20:16 42.393678 -122.883934 334 3522ft 151kts
19-Jan-18 20:17 42.429117 -122.907967 331 7045ft 149kts
19-Jan-18 20:18 42.468391 -122.916928 356 10710ft 154kts
19-Jan-18 20:32 42.368257 -122.871306 171 1320ft 8kts
19-Jan-18 20:33 42.363811 -122.869008 151 1320ft 9kts
19-Jan-18 20:34 42.364525 -122.867824 339 1320ft 15kts
19-Jan-18 20:35 42.394266 -122.884477 335 3905ft 149kts
19-Jan-18 20:36 42.431577 -122.900114 346 7265ft 150kts
19-Jan-18 20:37 42.472664 -122.909382 11 10033ft 159kts
19-Jan-18 20:38 42.508466 -122.870038 38 13100ft 178kts
19-Jan-18 20:39 42.543644 -122.822914 40 16222ft 184kts
19-Jan-18 20:40 42.579427 -122.773223 40 19321ft 190kts
19-Jan-18 20:41 42.616292 -122.721529 40 22259ft 197kts
19-Jan-18 20:42 42.654744 -122.667457 40 25107ft 206kts
19-Jan-18 20:43 42.695343 -122.610243 41 27557ft 218kts
19-Jan-18 20:44 42.738699 -122.549062 39 29668ft 231kts
19-Jan-18 20:45 42.783365 -122.486099 38 31661ft 239kts
19-Jan-18 20:46 42.829676 -122.420855 41 33444ft 243kts
19-Jan-18 20:47 42.879051 -122.350084 43 34149ft 286kts
19-Jan-18 20:48 42.936106 -122.268575 44 35034ft 303kts
19-Jan-18 20:49 42.993114 -122.187054 44 36402ft 294kts
19-Jan-18 20:50 43.049905 -122.105642 45 37260ft 302kts
19-Jan-18 20:51 43.107822 -122.022335 43 38024ft 307kts
19-Jan-18 20:52 43.166508 -121.937723 44 38660ft 312kts
19-Jan-18 20:53 43.226376 -121.851091 44 39051ft 323kts
19-Jan-18 20:54 43.289607 -121.759381 44 39052ft 342kts
19-Jan-18 20:55 43.356118 -121.662500 44 39051ft 358kts
19-Jan-18 20:56 43.424947 -121.561919 44 39051ft 367kts
19-Jan-18 20:57 43.494902 -121.459333 44 39051ft 372kts
19-Jan-18 20:58 43.565256 -121.355784 44 39051ft 371kts
19-Jan-18 20:59 43.634822 -121.253035 45 39046ft 370kts
19-Jan-18 21:00 43.704498 -121.149741 45 39047ft 370kts
19-Jan-18 21:01 43.774205 -121.046017 45 39048ft 370kts
19-Jan-18 21:02 43.843697 -120.942234 45 39049ft 370kts
19-Jan-18 21:03 43.913147 -120.838128 45 39049ft 371kts
19-Jan-18 21:04 43.982754 -120.733403 44 39050ft 371kts
19-Jan-18 21:05 44.052216 -120.628506 45 39051ft 372kts
19-Jan-18 21:06 44.117744 -120.529190 45 39049ft 372kts
19-Jan-18 21:07 44.186996 -120.423852 45 39050ft 372kts
19-Jan-18 21:08 44.256363 -120.317943 45 39046ft 373kts
19-Jan-18 21:09 44.325645 -120.211750 45 39046ft 372kts
19-Jan-18 21:10 44.394652 -120.105587 45 39047ft 372kts
19-Jan-18 21:11 44.463643 -119.999050 45 39048ft 373kts
19-Jan-18 21:12 44.530431 -119.895520 45 39048ft 373kts
19-Jan-18 21:13 44.599816 -119.787562 45 39049ft 374kts
19-Jan-18 21:14 44.682836 -119.709979 6 39056ft 360kts
19-Jan-18 21:15 44.781162 -119.692269 1 39050ft 359kts
19-Jan-18 21:16 44.879791 -119.677526 1 39050ft 359kts
19-Jan-18 21:17 44.978662 -119.662831 1 39051ft 359kts
19-Jan-18 21:18 45.076966 -119.648255 1 39051ft 359kts
19-Jan-18 21:19 45.174578 -119.633578 1 39048ft 359kts
19-Jan-18 21:20 45.273269 -119.618768 2 39049ft 359kts
19-Jan-18 21:21 45.371953 -119.603891 2 39049ft 359kts
19-Jan-18 21:22 45.470566 -119.588984 2 39049ft 359kts
19-Jan-18 21:23 45.569329 -119.574037 2 39050ft 360kts
19-Jan-18 21:24 45.668384 -119.558919 2 39050ft 360kts
19-Jan-18 21:25 45.767424 -119.543785 2 39050ft 360kts
19-Jan-18 21:26 45.849774 -119.531161 2 39050ft 360kts
19-Jan-18 21:27 45.965532 -119.513352 2 39051ft 360kts
19-Jan-18 21:28 46.064034 -119.498139 2 39051ft 360kts
19-Jan-18 21:29 46.162734 -119.482844 2 39049ft 360kts
19-Jan-18 21:30 46.245312 -119.469938 1 39049ft 361kts
19-Jan-18 21:31 46.344356 -119.454553 2 39049ft 361kts
19-Jan-18 21:32 46.460011 -119.436430 2 39050ft 360kts
19-Jan-18 21:33 46.558984 -119.420864 2 39050ft 361kts
19-Jan-18 21:34 46.641330 -119.407871 2 38994ft 362kts
19-Jan-18 21:35 46.742156 -119.391921 2 38373ft 375kts
19-Jan-18 21:36 46.839971 -119.376377 2 37276ft 385kts
19-Jan-18 21:37 46.946602 -119.359366 2 36093ft 389kts
19-Jan-18 21:38 47.043150 -119.343942 3 35017ft 390kts
19-Jan-18 21:39 47.149265 -119.320140 17 33788ft 395kts
19-Jan-18 21:40 47.232058 -119.218484 57 32521ft 398kts
19-Jan-18 21:41 47.266239 -119.064412 71 31293ft 399kts
19-Jan-18 21:42 47.299214 -118.908491 70 29598ft 403kts
19-Jan-18 21:43 47.332773 -118.751150 69 27891ft 402kts
19-Jan-18 21:44 47.365582 -118.596120 69 26200ft 395kts
19-Jan-18 21:45 47.397069 -118.446172 69 24416ft 371kts
19-Jan-18 21:46 47.425711 -118.308851 69 22549ft 351kts
19-Jan-18 21:47 47.453830 -118.173220 69 20631ft 345kts
19-Jan-18 21:48 47.482963 -118.041205 58 18477ft 325kts
19-Jan-18 21:49 47.530159 -117.930855 54 15239ft 321kts
19-Jan-18 21:50 47.577860 -117.823270 54 12250ft 309kts
19-Jan-18 21:51 47.624809 -117.721562 53 9613ft 286kts
19-Jan-18 21:52 47.670505 -117.629276 53 6788ft 272kts
19-Jan-18 21:53 47.712876 -117.545165 53 4989ft 218kts
19-Jan-18 21:54 47.738807 -117.494951 52 4987ft 116kts
19-Jan-18 21:55 47.719034 -117.429548 133 5152ft 245kts
19-Jan-18 21:56 47.669374 -117.452859 241 4186ft 248kts
19-Jan-18 21:57 47.635075 -117.512418 223 2470ft 114kts
19-Jan-18 21:58 47.622238 -117.531761 222 2364ft 25kts
19-Jan-18 21:59 47.621232 -117.529032 146 2364ft 10kts
19-Jan-18 22:00 47.620484 -117.528657 90 2364ft 0kts
19-Jan-18 22:01 47.620484 -117.528657 90 2364ft 0kts
19-Jan-18 22:02 47.620484 -117.528657 90 2364ft 0kts
19-Jan-18 22:03 47.620484 -117.528657 90 2364ft 0kts
19-Jan-18 22:04 47.620484 -117.528657 90 2364ft 0kts
19-Jan-18 22:05 47.620484 -117.528657 90 2364ft 0kts
19-Jan-18 22:06 47.620484 -117.528657 90 2364ft 0kts

Navigation Log

Ident Type
Flight plan parsing failed, navigation log unavailable